sensor_id;sensor_type;location;lat;lon;timestamp;P1;durP1;ratioP1;P2;durP2;ratioP2
6638;SDS011;3355;52.882;8.430;2023-06-10T00:01:45;7.73;;;4.63;;
6638;SDS011;3355;52.882;8.430;2023-06-10T00:04:13;6.63;;;3.97;;
6638;SDS011;3355;52.882;8.430;2023-06-10T00:06:41;6.40;;;4.07;;
6638;SDS011;3355;52.882;8.430;2023-06-10T00:09:09;7.17;;;4.43;;
6638;SDS011;3355;52.882;8.430;2023-06-10T00:11:39;6.83;;;3.77;;
6638;SDS011;3355;52.882;8.430;2023-06-10T00:14:07;4.30;;;3.53;;
6638;SDS011;3355;52.882;8.430;2023-06-10T00:16:36;4.67;;;3.40;;
6638;SDS011;3355;52.882;8.430;2023-06-10T00:19:04;6.10;;;3.50;;
6638;SDS011;3355;52.882;8.430;2023-06-10T00:21:32;3.83;;;3.43;;
6638;SDS011;3355;52.882;8.430;2023-06-10T00:24:02;5.43;;;4.03;;
6638;SDS011;3355;52.882;8.430;2023-06-10T00:26:30;4.73;;;3.43;;
6638;SDS011;3355;52.882;8.430;2023-06-10T00:28:57;4.70;;;3.20;;
6638;SDS011;3355;52.882;8.430;2023-06-10T00:31:24;5.87;;;3.67;;
6638;SDS011;3355;52.882;8.430;2023-06-10T00:33:53;4.83;;;3.60;;
6638;SDS011;3355;52.882;8.430;2023-06-10T00:36:20;4.73;;;3.30;;
6638;SDS011;3355;52.882;8.430;2023-06-10T00:38:47;5.93;;;3.90;;
6638;SDS011;3355;52.882;8.430;2023-06-10T00:41:15;4.00;;;3.60;;
6638;SDS011;3355;52.882;8.430;2023-06-10T00:43:42;4.60;;;3.50;;
6638;SDS011;3355;52.882;8.430;2023-06-10T00:46:10;4.20;;;3.30;;
6638;SDS011;3355;52.882;8.430;2023-06-10T00:48:39;6.30;;;3.77;;
6638;SDS011;3355;52.882;8.430;2023-06-10T00:51:08;6.57;;;3.60;;
6638;SDS011;3355;52.882;8.430;2023-06-10T00:53:37;4.53;;;3.70;;
6638;SDS011;3355;52.882;8.430;2023-06-10T00:56:07;4.00;;;3.40;;
6638;SDS011;3355;52.882;8.430;2023-06-10T00:58:34;4.53;;;3.27;;
6638;SDS011;3355;52.882;8.430;2023-06-10T01:01:01;4.93;;;3.87;;
6638;SDS011;3355;52.882;8.430;2023-06-10T01:03:29;7.20;;;4.20;;
6638;SDS011;3355;52.882;8.430;2023-06-10T01:05:57;6.40;;;3.80;;
6638;SDS011;3355;52.882;8.430;2023-06-10T01:08:35;5.50;;;3.33;;
6638;SDS011;3355;52.882;8.430;2023-06-10T01:11:07;5.20;;;3.70;;
6638;SDS011;3355;52.882;8.430;2023-06-10T01:13:35;7.13;;;4.60;;
6638;SDS011;3355;52.882;8.430;2023-06-10T01:16:02;7.13;;;4.00;;
6638;SDS011;3355;52.882;8.430;2023-06-10T01:18:30;5.43;;;3.87;;
6638;SDS011;3355;52.882;8.430;2023-06-10T01:20:57;4.13;;;3.40;;
6638;SDS011;3355;52.882;8.430;2023-06-10T01:23:26;5.63;;;3.60;;
6638;SDS011;3355;52.882;8.430;2023-06-10T01:25:55;4.70;;;3.93;;
6638;SDS011;3355;52.882;8.430;2023-06-10T01:28:25;6.80;;;3.93;;
6638;SDS011;3355;52.882;8.430;2023-06-10T01:30:59;10.30;;;4.43;;
6638;SDS011;3355;52.882;8.430;2023-06-10T01:33:33;7.23;;;3.67;;
6638;SDS011;3355;52.882;8.430;2023-06-10T01:36:02;6.03;;;4.10;;
6638;SDS011;3355;52.882;8.430;2023-06-10T01:38:32;4.37;;;3.53;;
6638;SDS011;3355;52.882;8.430;2023-06-10T01:41:05;4.40;;;3.30;;
6638;SDS011;3355;52.882;8.430;2023-06-10T01:43:32;5.30;;;3.33;;
6638;SDS011;3355;52.882;8.430;2023-06-10T01:46:00;7.13;;;4.10;;
6638;SDS011;3355;52.882;8.430;2023-06-10T01:48:27;7.17;;;3.30;;
6638;SDS011;3355;52.882;8.430;2023-06-10T01:50:54;3.97;;;3.57;;
6638;SDS011;3355;52.882;8.430;2023-06-10T01:53:21;7.83;;;4.20;;
6638;SDS011;3355;52.882;8.430;2023-06-10T01:55:49;6.50;;;3.40;;
6638;SDS011;3355;52.882;8.430;2023-06-10T01:58:16;5.53;;;3.77;;
6638;SDS011;3355;52.882;8.430;2023-06-10T02:00:42;6.77;;;3.80;;
6638;SDS011;3355;52.882;8.430;2023-06-10T02:03:09;8.33;;;4.40;;
6638;SDS011;3355;52.882;8.430;2023-06-10T02:05:36;6.97;;;3.47;;
6638;SDS011;3355;52.882;8.430;2023-06-10T02:08:02;4.53;;;3.50;;
6638;SDS011;3355;52.882;8.430;2023-06-10T02:10:30;8.57;;;3.80;;
6638;SDS011;3355;52.882;8.430;2023-06-10T02:12:58;5.00;;;3.30;;
6638;SDS011;3355;52.882;8.430;2023-06-10T02:15:25;4.50;;;3.20;;
6638;SDS011;3355;52.882;8.430;2023-06-10T02:17:52;5.50;;;3.70;;
6638;SDS011;3355;52.882;8.430;2023-06-10T02:20:21;8.60;;;4.20;;
6638;SDS011;3355;52.882;8.430;2023-06-10T02:22:48;5.77;;;4.73;;
6638;SDS011;3355;52.882;8.430;2023-06-10T02:25:17;4.90;;;3.73;;
6638;SDS011;3355;52.882;8.430;2023-06-10T02:27:44;5.30;;;3.63;;
6638;SDS011;3355;52.882;8.430;2023-06-10T02:30:13;5.90;;;3.80;;
6638;SDS011;3355;52.882;8.430;2023-06-10T02:32:41;5.20;;;3.60;;
6638;SDS011;3355;52.882;8.430;2023-06-10T02:35:11;6.37;;;4.83;;
6638;SDS011;3355;52.882;8.430;2023-06-10T02:37:38;6.63;;;3.60;;
6638;SDS011;3355;52.882;8.430;2023-06-10T02:40:06;6.70;;;3.87;;
6638;SDS011;3355;52.882;8.430;2023-06-10T02:42:33;6.53;;;3.73;;
6638;SDS011;3355;52.882;8.430;2023-06-10T02:45:01;7.03;;;3.70;;
6638;SDS011;3355;52.882;8.430;2023-06-10T02:47:29;5.67;;;3.50;;
6638;SDS011;3355;52.882;8.430;2023-06-10T02:49:56;15.20;;;4.13;;
6638;SDS011;3355;52.882;8.430;2023-06-10T02:52:22;10.03;;;4.27;;
6638;SDS011;3355;52.882;8.430;2023-06-10T02:54:50;6.93;;;4.17;;
6638;SDS011;3355;52.882;8.430;2023-06-10T02:57:17;5.70;;;4.20;;
6638;SDS011;3355;52.882;8.430;2023-06-10T02:59:44;6.27;;;4.30;;
6638;SDS011;3355;52.882;8.430;2023-06-10T03:02:10;5.20;;;4.07;;
6638;SDS011;3355;52.882;8.430;2023-06-10T03:04:39;5.70;;;4.07;;
6638;SDS011;3355;52.882;8.430;2023-06-10T03:07:06;6.40;;;4.10;;
6638;SDS011;3355;52.882;8.430;2023-06-10T03:09:33;6.67;;;4.00;;
6638;SDS011;3355;52.882;8.430;2023-06-10T03:12:00;9.07;;;4.20;;
6638;SDS011;3355;52.882;8.430;2023-06-10T03:14:27;5.80;;;3.80;;
6638;SDS011;3355;52.882;8.430;2023-06-10T03:16:54;9.70;;;4.03;;
6638;SDS011;3355;52.882;8.430;2023-06-10T03:19:21;6.10;;;4.97;;
6638;SDS011;3355;52.882;8.430;2023-06-10T03:21:57;5.07;;;4.07;;
6638;SDS011;3355;52.882;8.430;2023-06-10T03:24:27;4.80;;;3.83;;
6638;SDS011;3355;52.882;8.430;2023-06-10T03:26:54;5.10;;;4.00;;
6638;SDS011;3355;52.882;8.430;2023-06-10T03:29:21;6.30;;;4.00;;
6638;SDS011;3355;52.882;8.430;2023-06-10T03:31:48;6.60;;;4.27;;
6638;SDS011;3355;52.882;8.430;2023-06-10T03:34:15;7.03;;;4.30;;
6638;SDS011;3355;52.882;8.430;2023-06-10T03:36:41;8.03;;;4.90;;
6638;SDS011;3355;52.882;8.430;2023-06-10T03:39:10;6.30;;;3.80;;
6638;SDS011;3355;52.882;8.430;2023-06-10T03:41:37;6.87;;;3.77;;
6638;SDS011;3355;52.882;8.430;2023-06-10T03:44:04;7.23;;;4.10;;
6638;SDS011;3355;52.882;8.430;2023-06-10T03:46:31;7.63;;;4.20;;
6638;SDS011;3355;52.882;8.430;2023-06-10T03:48:57;5.80;;;3.80;;
6638;SDS011;3355;52.882;8.430;2023-06-10T03:51:25;7.40;;;4.70;;
6638;SDS011;3355;52.882;8.430;2023-06-10T03:53:52;4.40;;;3.97;;
6638;SDS011;3355;52.882;8.430;2023-06-10T03:56:20;6.67;;;4.17;;
6638;SDS011;3355;52.882;8.430;2023-06-10T03:58:47;4.53;;;3.93;;
6638;SDS011;3355;52.882;8.430;2023-06-10T04:01:14;5.00;;;3.73;;
6638;SDS011;3355;52.882;8.430;2023-06-10T04:03:43;8.13;;;5.57;;
6638;SDS011;3355;52.882;8.430;2023-06-10T04:06:09;5.10;;;4.60;;
6638;SDS011;3355;52.882;8.430;2023-06-10T04:08:36;6.77;;;4.30;;
6638;SDS011;3355;52.882;8.430;2023-06-10T04:11:04;7.67;;;4.70;;
6638;SDS011;3355;52.882;8.430;2023-06-10T04:13:32;7.07;;;4.53;;
6638;SDS011;3355;52.882;8.430;2023-06-10T04:15:59;5.57;;;4.30;;
6638;SDS011;3355;52.882;8.430;2023-06-10T04:18:26;5.20;;;4.23;;
6638;SDS011;3355;52.882;8.430;2023-06-10T04:20:53;6.20;;;3.60;;
6638;SDS011;3355;52.882;8.430;2023-06-10T04:23:20;4.83;;;4.03;;
6638;SDS011;3355;52.882;8.430;2023-06-10T04:25:47;5.20;;;3.53;;
6638;SDS011;3355;52.882;8.430;2023-06-10T04:28:17;6.87;;;4.60;;
6638;SDS011;3355;52.882;8.430;2023-06-10T04:30:45;5.53;;;4.23;;
6638;SDS011;3355;52.882;8.430;2023-06-10T04:33:12;5.60;;;4.10;;
6638;SDS011;3355;52.882;8.430;2023-06-10T04:35:39;6.47;;;4.73;;
6638;SDS011;3355;52.882;8.430;2023-06-10T04:38:06;6.00;;;4.60;;
6638;SDS011;3355;52.882;8.430;2023-06-10T04:40:33;7.33;;;4.77;;
6638;SDS011;3355;52.882;8.430;2023-06-10T04:43:00;7.20;;;5.10;;
6638;SDS011;3355;52.882;8.430;2023-06-10T04:45:27;7.10;;;4.60;;
6638;SDS011;3355;52.882;8.430;2023-06-10T04:47:56;8.93;;;5.73;;
6638;SDS011;3355;52.882;8.430;2023-06-10T04:50:23;9.30;;;5.30;;
6638;SDS011;3355;52.882;8.430;2023-06-10T04:52:50;7.17;;;4.90;;
6638;SDS011;3355;52.882;8.430;2023-06-10T04:55:17;6.10;;;4.93;;
6638;SDS011;3355;52.882;8.430;2023-06-10T04:57:43;7.23;;;6.23;;
6638;SDS011;3355;52.882;8.430;2023-06-10T05:00:10;5.47;;;4.70;;
6638;SDS011;3355;52.882;8.430;2023-06-10T05:02:39;6.67;;;5.50;;
6638;SDS011;3355;52.882;8.430;2023-06-10T05:05:08;7.13;;;5.73;;
6638;SDS011;3355;52.882;8.430;2023-06-10T05:07:35;6.90;;;5.40;;
6638;SDS011;3355;52.882;8.430;2023-06-10T05:10:01;6.70;;;6.13;;
6638;SDS011;3355;52.882;8.430;2023-06-10T05:12:28;7.50;;;5.80;;
6638;SDS011;3355;52.882;8.430;2023-06-10T05:14:55;8.87;;;6.40;;
6638;SDS011;3355;52.882;8.430;2023-06-10T05:17:21;6.97;;;5.70;;
6638;SDS011;3355;52.882;8.430;2023-06-10T05:19:50;6.00;;;5.40;;
6638;SDS011;3355;52.882;8.430;2023-06-10T05:22:19;8.80;;;6.27;;
6638;SDS011;3355;52.882;8.430;2023-06-10T05:24:49;10.37;;;5.77;;
6638;SDS011;3355;52.882;8.430;2023-06-10T05:27:16;5.93;;;5.43;;
6638;SDS011;3355;52.882;8.430;2023-06-10T05:29:42;7.50;;;6.60;;
6638;SDS011;3355;52.882;8.430;2023-06-10T05:32:10;6.80;;;6.10;;
6638;SDS011;3355;52.882;8.430;2023-06-10T05:34:37;8.50;;;6.40;;
6638;SDS011;3355;52.882;8.430;2023-06-10T05:37:04;8.07;;;6.77;;
6638;SDS011;3355;52.882;8.430;2023-06-10T05:39:33;7.23;;;6.50;;
6638;SDS011;3355;52.882;8.430;2023-06-10T05:42:02;8.80;;;6.60;;
6638;SDS011;3355;52.882;8.430;2023-06-10T05:44:29;10.17;;;7.90;;
6638;SDS011;3355;52.882;8.430;2023-06-10T05:46:56;8.40;;;6.60;;
6638;SDS011;3355;52.882;8.430;2023-06-10T05:49:23;8.13;;;6.67;;
6638;SDS011;3355;52.882;8.430;2023-06-10T05:51:50;9.07;;;6.57;;
6638;SDS011;3355;52.882;8.430;2023-06-10T05:54:17;7.40;;;6.70;;
6638;SDS011;3355;52.882;8.430;2023-06-10T05:56:45;6.70;;;6.00;;
6638;SDS011;3355;52.882;8.430;2023-06-10T05:59:12;9.53;;;6.33;;
6638;SDS011;3355;52.882;8.430;2023-06-10T06:01:39;9.63;;;7.50;;
6638;SDS011;3355;52.882;8.430;2023-06-10T06:04:06;6.53;;;5.93;;
6638;SDS011;3355;52.882;8.430;2023-06-10T06:06:34;7.43;;;6.73;;
6638;SDS011;3355;52.882;8.430;2023-06-10T06:09:01;9.03;;;6.50;;
6638;SDS011;3355;52.882;8.430;2023-06-10T06:11:28;7.37;;;6.60;;
6638;SDS011;3355;52.882;8.430;2023-06-10T06:13:56;8.40;;;6.97;;
6638;SDS011;3355;52.882;8.430;2023-06-10T06:16:23;11.67;;;5.73;;
6638;SDS011;3355;52.882;8.430;2023-06-10T06:18:50;7.90;;;6.80;;
6638;SDS011;3355;52.882;8.430;2023-06-10T06:21:17;7.20;;;6.50;;
6638;SDS011;3355;52.882;8.430;2023-06-10T06:23:43;7.10;;;6.13;;
6638;SDS011;3355;52.882;8.430;2023-06-10T06:26:10;9.20;;;6.30;;
6638;SDS011;3355;52.882;8.430;2023-06-10T06:28:37;7.20;;;5.90;;
6638;SDS011;3355;52.882;8.430;2023-06-10T06:31:06;7.13;;;6.43;;
6638;SDS011;3355;52.882;8.430;2023-06-10T06:33:33;6.47;;;5.87;;
6638;SDS011;3355;52.882;8.430;2023-06-10T06:35:59;7.37;;;6.23;;
6638;SDS011;3355;52.882;8.430;2023-06-10T06:38:26;7.83;;;6.93;;
6638;SDS011;3355;52.882;8.430;2023-06-10T06:40:53;6.93;;;6.23;;
6638;SDS011;3355;52.882;8.430;2023-06-10T06:43:20;7.13;;;5.93;;
6638;SDS011;3355;52.882;8.430;2023-06-10T06:45:47;6.80;;;5.50;;
6638;SDS011;3355;52.882;8.430;2023-06-10T06:48:16;7.57;;;6.73;;
6638;SDS011;3355;52.882;8.430;2023-06-10T06:50:43;8.63;;;6.10;;
6638;SDS011;3355;52.882;8.430;2023-06-10T06:53:10;7.90;;;6.80;;
6638;SDS011;3355;52.882;8.430;2023-06-10T06:55:37;6.27;;;5.67;;
6638;SDS011;3355;52.882;8.430;2023-06-10T06:58:04;8.30;;;6.13;;
6638;SDS011;3355;52.882;8.430;2023-06-10T07:00:30;8.27;;;6.10;;
6638;SDS011;3355;52.882;8.430;2023-06-10T07:02:57;7.20;;;5.90;;
6638;SDS011;3355;52.882;8.430;2023-06-10T07:05:25;9.17;;;5.83;;
6638;SDS011;3355;52.882;8.430;2023-06-10T07:07:52;6.90;;;6.20;;
6638;SDS011;3355;52.882;8.430;2023-06-10T07:10:20;6.90;;;6.30;;
6638;SDS011;3355;52.882;8.430;2023-06-10T07:12:48;9.53;;;6.07;;
6638;SDS011;3355;52.882;8.430;2023-06-10T07:15:15;6.90;;;6.00;;
6638;SDS011;3355;52.882;8.430;2023-06-10T07:17:42;6.30;;;5.60;;
6638;SDS011;3355;52.882;8.430;2023-06-10T07:20:09;8.10;;;5.90;;
6638;SDS011;3355;52.882;8.430;2023-06-10T07:22:38;6.50;;;5.10;;
6638;SDS011;3355;52.882;8.430;2023-06-10T07:25:05;6.23;;;5.63;;
6638;SDS011;3355;52.882;8.430;2023-06-10T07:27:33;7.30;;;5.93;;
6638;SDS011;3355;52.882;8.430;2023-06-10T07:30:01;6.20;;;5.60;;
6638;SDS011;3355;52.882;8.430;2023-06-10T07:32:28;7.23;;;6.00;;
6638;SDS011;3355;52.882;8.430;2023-06-10T07:34:55;6.53;;;5.93;;
6638;SDS011;3355;52.882;8.430;2023-06-10T07:37:21;5.87;;;5.23;;
6638;SDS011;3355;52.882;8.430;2023-06-10T07:39:49;7.07;;;5.90;;
6638;SDS011;3355;52.882;8.430;2023-06-10T07:42:16;6.93;;;6.23;;
6638;SDS011;3355;52.882;8.430;2023-06-10T07:44:43;6.23;;;5.67;;
6638;SDS011;3355;52.882;8.430;2023-06-10T07:47:10;6.20;;;5.60;;
6638;SDS011;3355;52.882;8.430;2023-06-10T07:49:37;6.93;;;5.40;;
6638;SDS011;3355;52.882;8.430;2023-06-10T07:52:05;8.17;;;5.83;;
6638;SDS011;3355;52.882;8.430;2023-06-10T07:54:32;5.77;;;5.27;;
6638;SDS011;3355;52.882;8.430;2023-06-10T07:57:01;5.77;;;5.17;;
6638;SDS011;3355;52.882;8.430;2023-06-10T07:59:29;5.97;;;5.37;;
6638;SDS011;3355;52.882;8.430;2023-06-10T08:01:56;11.50;;;5.27;;
6638;SDS011;3355;52.882;8.430;2023-06-10T08:04:23;6.03;;;5.50;;
6638;SDS011;3355;52.882;8.430;2023-06-10T08:06:50;6.90;;;6.20;;
6638;SDS011;3355;52.882;8.430;2023-06-10T08:09:17;5.80;;;5.20;;
6638;SDS011;3355;52.882;8.430;2023-06-10T08:11:48;5.23;;;4.73;;
6638;SDS011;3355;52.882;8.430;2023-06-10T08:14:17;6.10;;;5.50;;
6638;SDS011;3355;52.882;8.430;2023-06-10T08:16:44;6.60;;;6.00;;
6638;SDS011;3355;52.882;8.430;2023-06-10T08:19:10;8.20;;;5.60;;
6638;SDS011;3355;52.882;8.430;2023-06-10T08:21:37;5.90;;;5.30;;
6638;SDS011;3355;52.882;8.430;2023-06-10T08:24:05;6.13;;;5.53;;
6638;SDS011;3355;52.882;8.430;2023-06-10T08:26:32;7.33;;;6.10;;
6638;SDS011;3355;52.882;8.430;2023-06-10T08:28:59;6.47;;;5.87;;
6638;SDS011;3355;52.882;8.430;2023-06-10T08:31:27;6.50;;;5.90;;
6638;SDS011;3355;52.882;8.430;2023-06-10T08:33:54;7.53;;;6.73;;
6638;SDS011;3355;52.882;8.430;2023-06-10T08:36:21;7.87;;;5.53;;
6638;SDS011;3355;52.882;8.430;2023-06-10T08:38:49;6.40;;;5.50;;
6638;SDS011;3355;52.882;8.430;2023-06-10T08:41:17;8.87;;;5.17;;
6638;SDS011;3355;52.882;8.430;2023-06-10T08:43:46;6.13;;;5.40;;
6638;SDS011;3355;52.882;8.430;2023-06-10T08:46:28;6.37;;;5.77;;
6638;SDS011;3355;52.882;8.430;2023-06-10T08:48:57;6.80;;;6.13;;
6638;SDS011;3355;52.882;8.430;2023-06-10T08:51:27;6.27;;;5.30;;
6638;SDS011;3355;52.882;8.430;2023-06-10T08:53:56;6.60;;;5.20;;
6638;SDS011;3355;52.882;8.430;2023-06-10T08:56:27;6.80;;;5.57;;
6638;SDS011;3355;52.882;8.430;2023-06-10T08:58:55;7.17;;;6.47;;
6638;SDS011;3355;52.882;8.430;2023-06-10T09:01:22;6.50;;;5.77;;
6638;SDS011;3355;52.882;8.430;2023-06-10T09:03:51;7.03;;;6.43;;
6638;SDS011;3355;52.882;8.430;2023-06-10T09:06:18;5.77;;;5.00;;
6638;SDS011;3355;52.882;8.430;2023-06-10T09:08:44;9.83;;;6.30;;
6638;SDS011;3355;52.882;8.430;2023-06-10T09:11:11;6.10;;;5.50;;
6638;SDS011;3355;52.882;8.430;2023-06-10T09:13:38;5.10;;;4.70;;
6638;SDS011;3355;52.882;8.430;2023-06-10T09:16:04;8.13;;;6.40;;
6638;SDS011;3355;52.882;8.430;2023-06-10T09:18:31;7.00;;;5.57;;
6638;SDS011;3355;52.882;8.430;2023-06-10T09:20:59;6.03;;;5.43;;
6638;SDS011;3355;52.882;8.430;2023-06-10T09:23:25;8.30;;;6.00;;
6638;SDS011;3355;52.882;8.430;2023-06-10T09:25:55;6.10;;;5.50;;
6638;SDS011;3355;52.882;8.430;2023-06-10T09:28:22;6.00;;;5.50;;
6638;SDS011;3355;52.882;8.430;2023-06-10T09:30:49;6.90;;;5.30;;
6638;SDS011;3355;52.882;8.430;2023-06-10T09:33:16;5.78;;;5.13;;
6638;SDS011;3355;52.882;8.430;2023-06-10T09:35:45;6.03;;;4.85;;
6638;SDS011;3355;52.882;8.430;2023-06-10T09:38:14;6.22;;;5.07;;
6638;SDS011;3355;52.882;8.430;2023-06-10T09:40:48;8.73;;;4.75;;
6638;SDS011;3355;52.882;8.430;2023-06-10T09:43:16;6.70;;;5.65;;
6638;SDS011;3355;52.882;8.430;2023-06-10T09:45:42;5.13;;;4.53;;
6638;SDS011;3355;52.882;8.430;2023-06-10T09:48:09;6.35;;;5.20;;
6638;SDS011;3355;52.882;8.430;2023-06-10T09:50:41;4.88;;;4.38;;
6638;SDS011;3355;52.882;8.430;2023-06-10T09:53:08;7.85;;;5.40;;
6638;SDS011;3355;52.882;8.430;2023-06-10T09:55:36;5.00;;;4.60;;
6638;SDS011;3355;52.882;8.430;2023-06-10T09:58:03;4.30;;;3.90;;
6638;SDS011;3355;52.882;8.430;2023-06-10T10:00:31;5.80;;;5.20;;
6638;SDS011;3355;52.882;8.430;2023-06-10T10:02:58;5.63;;;5.13;;
6638;SDS011;3355;52.882;8.430;2023-06-10T10:05:25;5.25;;;4.85;;
6638;SDS011;3355;52.882;8.430;2023-06-10T10:07:53;4.43;;;4.03;;
6638;SDS011;3355;52.882;8.430;2023-06-10T10:10:21;6.90;;;4.85;;
6638;SDS011;3355;52.882;8.430;2023-06-10T10:12:50;4.85;;;4.45;;
6638;SDS011;3355;52.882;8.430;2023-06-10T10:15:19;7.15;;;4.50;;
6638;SDS011;3355;52.882;8.430;2023-06-10T10:18:02;6.00;;;4.47;;
6638;SDS011;3355;52.882;8.430;2023-06-10T10:20:31;6.57;;;4.07;;
6638;SDS011;3355;52.882;8.430;2023-06-10T10:23:01;4.60;;;4.20;;
6638;SDS011;3355;52.882;8.430;2023-06-10T10:25:29;4.80;;;4.40;;
6638;SDS011;3355;52.882;8.430;2023-06-10T10:28:04;4.90;;;4.50;;
6638;SDS011;3355;52.882;8.430;2023-06-10T10:30:33;4.72;;;4.30;;
6638;SDS011;3355;52.882;8.430;2023-06-10T10:33:04;4.93;;;3.85;;
6638;SDS011;3355;52.882;8.430;2023-06-10T10:35:33;6.55;;;4.00;;
6638;SDS011;3355;52.882;8.430;2023-06-10T10:38:00;5.10;;;4.60;;
6638;SDS011;3355;52.882;8.430;2023-06-10T10:40:28;4.80;;;4.40;;
6638;SDS011;3355;52.882;8.430;2023-06-10T10:42:55;6.03;;;4.35;;
6638;SDS011;3355;52.882;8.430;2023-06-10T10:45:24;4.25;;;3.85;;
6638;SDS011;3355;52.882;8.430;2023-06-10T10:47:52;5.00;;;4.38;;
6638;SDS011;3355;52.882;8.430;2023-06-10T10:50:20;4.57;;;4.18;;
6638;SDS011;3355;52.882;8.430;2023-06-10T10:52:51;5.05;;;4.30;;
6638;SDS011;3355;52.882;8.430;2023-06-10T10:55:19;4.53;;;4.13;;
6638;SDS011;3355;52.882;8.430;2023-06-10T10:57:53;4.82;;;4.32;;
6638;SDS011;3355;52.882;8.430;2023-06-10T11:00:25;4.07;;;3.78;;
6638;SDS011;3355;52.882;8.430;2023-06-10T11:02:53;4.72;;;3.85;;
6638;SDS011;3355;52.882;8.430;2023-06-10T11:05:31;3.50;;;3.20;;
6638;SDS011;3355;52.882;8.430;2023-06-10T11:07:58;4.43;;;4.03;;
6638;SDS011;3355;52.882;8.430;2023-06-10T11:10:31;7.72;;;4.07;;
6638;SDS011;3355;52.882;8.430;2023-06-10T11:12:57;5.03;;;3.92;;
6638;SDS011;3355;52.882;8.430;2023-06-10T11:15:26;4.95;;;4.18;;
6638;SDS011;3355;52.882;8.430;2023-06-10T11:20:45;4.00;;;3.60;;
6638;SDS011;3355;52.882;8.430;2023-06-10T11:26:13;3.80;;;3.45;;
6638;SDS011;3355;52.882;8.430;2023-06-10T11:29:03;8.23;;;4.13;;
6638;SDS011;3355;52.882;8.430;2023-06-10T11:31:44;3.95;;;3.65;;
6638;SDS011;3355;52.882;8.430;2023-06-10T11:34:12;4.35;;;3.67;;
6638;SDS011;3355;52.882;8.430;2023-06-10T11:36:40;4.60;;;3.60;;
6638;SDS011;3355;52.882;8.430;2023-06-10T11:39:10;3.88;;;3.45;;
6638;SDS011;3355;52.882;8.430;2023-06-10T11:41:38;4.20;;;3.33;;
6638;SDS011;3355;52.882;8.430;2023-06-10T11:44:07;3.80;;;3.40;;
6638;SDS011;3355;52.882;8.430;2023-06-10T11:46:35;5.82;;;3.40;;
6638;SDS011;3355;52.882;8.430;2023-06-10T11:49:03;3.10;;;2.90;;
6638;SDS011;3355;52.882;8.430;2023-06-10T11:51:32;6.28;;;3.38;;
6638;SDS011;3355;52.882;8.430;2023-06-10T11:54:00;3.58;;;3.28;;
6638;SDS011;3355;52.882;8.430;2023-06-10T11:56:27;3.65;;;3.35;;
6638;SDS011;3355;52.882;8.430;2023-06-10T11:58:55;3.72;;;3.35;;
6638;SDS011;3355;52.882;8.430;2023-06-10T12:01:22;4.03;;;3.63;;
6638;SDS011;3355;52.882;8.430;2023-06-10T12:03:56;4.50;;;3.28;;
6638;SDS011;3355;52.882;8.430;2023-06-10T12:06:24;3.83;;;3.53;;
6638;SDS011;3355;52.882;8.430;2023-06-10T12:08:51;3.75;;;3.45;;
6638;SDS011;3355;52.882;8.430;2023-06-10T12:11:17;4.22;;;3.55;;
6638;SDS011;3355;52.882;8.430;2023-06-10T12:13:45;3.55;;;3.20;;
6638;SDS011;3355;52.882;8.430;2023-06-10T12:16:14;3.72;;;3.38;;
6638;SDS011;3355;52.882;8.430;2023-06-10T12:18:42;4.53;;;3.50;;
6638;SDS011;3355;52.882;8.430;2023-06-10T12:21:16;5.15;;;3.20;;
6638;SDS011;3355;52.882;8.430;2023-06-10T12:24:04;3.88;;;3.58;;
6638;SDS011;3355;52.882;8.430;2023-06-10T12:26:36;3.80;;;3.50;;
6638;SDS011;3355;52.882;8.430;2023-06-10T12:29:12;3.42;;;3.13;;
6638;SDS011;3355;52.882;8.430;2023-06-10T12:31:52;4.72;;;3.20;;
6638;SDS011;3355;52.882;8.430;2023-06-10T12:34:20;4.80;;;3.65;;
6638;SDS011;3355;52.882;8.430;2023-06-10T12:36:47;3.72;;;3.40;;
6638;SDS011;3355;52.882;8.430;2023-06-10T12:39:15;3.55;;;3.22;;
6638;SDS011;3355;52.882;8.430;2023-06-10T12:41:46;3.28;;;2.70;;
6638;SDS011;3355;52.882;8.430;2023-06-10T12:44:13;3.72;;;3.42;;
6638;SDS011;3355;52.882;8.430;2023-06-10T12:46:40;4.15;;;3.38;;
6638;SDS011;3355;52.882;8.430;2023-06-10T12:49:06;5.57;;;3.72;;
6638;SDS011;3355;52.882;8.430;2023-06-10T12:51:33;3.88;;;3.58;;
6638;SDS011;3355;52.882;8.430;2023-06-10T12:54:02;3.50;;;3.20;;
6638;SDS011;3355;52.882;8.430;2023-06-10T12:56:30;5.88;;;3.38;;
6638;SDS011;3355;52.882;8.430;2023-06-10T12:58:56;4.25;;;3.20;;
6638;SDS011;3355;52.882;8.430;2023-06-10T13:01:23;3.65;;;2.67;;
6638;SDS011;3355;52.882;8.430;2023-06-10T13:03:50;3.85;;;3.00;;
6638;SDS011;3355;52.882;8.430;2023-06-10T13:06:16;3.47;;;3.10;;
6638;SDS011;3355;52.882;8.430;2023-06-10T13:08:45;4.00;;;3.28;;
6638;SDS011;3355;52.882;8.430;2023-06-10T13:11:12;3.35;;;2.90;;
6638;SDS011;3355;52.882;8.430;2023-06-10T13:13:40;3.72;;;3.38;;
6638;SDS011;3355;52.882;8.430;2023-06-10T13:16:06;3.70;;;3.40;;
6638;SDS011;3355;52.882;8.430;2023-06-10T13:18:33;4.15;;;3.42;;
6638;SDS011;3355;52.882;8.430;2023-06-10T13:21:02;4.32;;;3.70;;
6638;SDS011;3355;52.882;8.430;2023-06-10T13:23:29;3.33;;;3.08;;
6638;SDS011;3355;52.882;8.430;2023-06-10T13:25:56;4.18;;;3.58;;
6638;SDS011;3355;52.882;8.430;2023-06-10T13:28:23;3.70;;;3.40;;
6638;SDS011;3355;52.882;8.430;2023-06-10T13:30:51;3.80;;;3.13;;
6638;SDS011;3355;52.882;8.430;2023-06-10T13:33:18;3.85;;;3.55;;
6638;SDS011;3355;52.882;8.430;2023-06-10T13:35:44;3.72;;;3.42;;
6638;SDS011;3355;52.882;8.430;2023-06-10T13:38:11;3.72;;;3.42;;
6638;SDS011;3355;52.882;8.430;2023-06-10T13:40:37;3.80;;;3.22;;
6638;SDS011;3355;52.882;8.430;2023-06-10T13:43:04;5.18;;;3.53;;
6638;SDS011;3355;52.882;8.430;2023-06-10T13:45:30;4.47;;;3.20;;
6638;SDS011;3355;52.882;8.430;2023-06-10T13:47:58;5.43;;;4.60;;
6638;SDS011;3355;52.882;8.430;2023-06-10T13:50:24;4.53;;;4.22;;
6638;SDS011;3355;52.882;8.430;2023-06-10T13:52:51;3.70;;;3.40;;
6638;SDS011;3355;52.882;8.430;2023-06-10T13:55:17;3.80;;;3.47;;
6638;SDS011;3355;52.882;8.430;2023-06-10T13:57:45;4.68;;;3.42;;
6638;SDS011;3355;52.882;8.430;2023-06-10T14:00:12;5.40;;;4.90;;
6638;SDS011;3355;52.882;8.430;2023-06-10T14:02:39;6.43;;;5.82;;
6638;SDS011;3355;52.882;8.430;2023-06-10T14:05:07;4.50;;;4.10;;
6638;SDS011;3355;52.882;8.430;2023-06-10T14:07:34;3.83;;;3.42;;
6638;SDS011;3355;52.882;8.430;2023-06-10T14:10:02;3.95;;;3.65;;
6638;SDS011;3355;52.882;8.430;2023-06-10T14:12:29;5.05;;;4.00;;
6638;SDS011;3355;52.882;8.430;2023-06-10T14:14:56;4.97;;;3.83;;
6638;SDS011;3355;52.882;8.430;2023-06-10T14:17:22;4.65;;;3.97;;
6638;SDS011;3355;52.882;8.430;2023-06-10T14:19:48;4.78;;;3.88;;
6638;SDS011;3355;52.882;8.430;2023-06-10T14:22:16;5.15;;;4.65;;
6638;SDS011;3355;52.882;8.430;2023-06-10T14:24:43;4.40;;;4.10;;
6638;SDS011;3355;52.882;8.430;2023-06-10T14:27:09;4.00;;;3.70;;
6638;SDS011;3355;52.882;8.430;2023-06-10T14:29:36;6.47;;;5.88;;
6638;SDS011;3355;52.882;8.430;2023-06-10T14:32:02;5.28;;;4.78;;
6638;SDS011;3355;52.882;8.430;2023-06-10T14:34:29;13.60;;;12.48;;
6638;SDS011;3355;52.882;8.430;2023-06-10T14:36:58;5.03;;;4.28;;
6638;SDS011;3355;52.882;8.430;2023-06-10T14:39:26;5.82;;;5.20;;
6638;SDS011;3355;52.882;8.430;2023-06-10T14:41:52;7.53;;;6.82;;
6638;SDS011;3355;52.882;8.430;2023-06-10T14:44:19;4.82;;;4.40;;
6638;SDS011;3355;52.882;8.430;2023-06-10T14:46:45;4.20;;;3.90;;
6638;SDS011;3355;52.882;8.430;2023-06-10T14:49:12;4.75;;;4.35;;
6638;SDS011;3355;52.882;8.430;2023-06-10T14:51:39;4.65;;;4.25;;
6638;SDS011;3355;52.882;8.430;2023-06-10T14:54:05;4.90;;;4.40;;
6638;SDS011;3355;52.882;8.430;2023-06-10T14:56:33;4.70;;;4.30;;
6638;SDS011;3355;52.882;8.430;2023-06-10T14:58:59;4.40;;;4.00;;
6638;SDS011;3355;52.882;8.430;2023-06-10T15:01:26;4.72;;;4.32;;
6638;SDS011;3355;52.882;8.430;2023-06-10T15:03:52;5.28;;;4.28;;
6638;SDS011;3355;52.882;8.430;2023-06-10T15:06:19;4.40;;;4.10;;
6638;SDS011;3355;52.882;8.430;2023-06-10T15:08:47;4.85;;;4.45;;
6638;SDS011;3355;52.882;8.430;2023-06-10T15:11:14;4.57;;;4.18;;
6638;SDS011;3355;52.882;8.430;2023-06-10T15:13:42;5.63;;;4.60;;
6638;SDS011;3355;52.882;8.430;2023-06-10T15:16:09;6.70;;;6.13;;
6638;SDS011;3355;52.882;8.430;2023-06-10T15:18:35;6.45;;;5.32;;
6638;SDS011;3355;52.882;8.430;2023-06-10T15:21:02;5.32;;;4.57;;
6638;SDS011;3355;52.882;8.430;2023-06-10T15:23:28;4.93;;;4.53;;
6638;SDS011;3355;52.882;8.430;2023-06-10T15:25:55;5.93;;;5.40;;